sensor_id;sensor_type;location;lat;lon;timestamp;P1;durP1;ratioP1;P2;durP2;ratioP2
40591;SDS011;26301;42.832;23.918;2022-07-04T00:01:21;10.98;;;9.43;;
40591;SDS011;26301;42.832;23.918;2022-07-04T00:03:48;11.05;;;9.68;;
40591;SDS011;26301;42.832;23.918;2022-07-04T00:06:14;10.73;;;9.55;;
40591;SDS011;26301;42.832;23.918;2022-07-04T00:08:41;10.70;;;9.05;;
40591;SDS011;26301;42.832;23.918;2022-07-04T00:11:07;11.45;;;10.25;;
40591;SDS011;26301;42.832;23.918;2022-07-04T00:13:33;11.25;;;9.77;;
40591;SDS011;26301;42.832;23.918;2022-07-04T00:15:58;13.20;;;9.00;;
40591;SDS011;26301;42.832;23.918;2022-07-04T00:18:24;13.35;;;9.43;;
40591;SDS011;26301;42.832;23.918;2022-07-04T00:20:50;11.32;;;9.55;;
40591;SDS011;26301;42.832;23.918;2022-07-04T00:23:15;11.25;;;9.27;;
40591;SDS011;26301;42.832;23.918;2022-07-04T00:25:42;9.63;;;8.77;;
40591;SDS011;26301;42.832;23.918;2022-07-04T00:28:08;10.57;;;9.50;;
40591;SDS011;26301;42.832;23.918;2022-07-04T00:30:34;11.90;;;9.27;;
40591;SDS011;26301;42.832;23.918;2022-07-04T00:33:00;10.25;;;9.15;;
40591;SDS011;26301;42.832;23.918;2022-07-04T00:35:27;9.95;;;9.05;;
40591;SDS011;26301;42.832;23.918;2022-07-04T00:37:53;10.98;;;9.25;;
40591;SDS011;26301;42.832;23.918;2022-07-04T00:40:19;11.90;;;8.75;;
40591;SDS011;26301;42.832;23.918;2022-07-04T00:42:45;11.48;;;10.27;;
40591;SDS011;26301;42.832;23.918;2022-07-04T00:45:11;10.27;;;9.27;;
40591;SDS011;26301;42.832;23.918;2022-07-04T00:47:37;10.05;;;8.63;;
40591;SDS011;26301;42.832;23.918;2022-07-04T00:50:03;10.32;;;9.32;;
40591;SDS011;26301;42.832;23.918;2022-07-04T00:52:29;10.27;;;9.23;;
40591;SDS011;26301;42.832;23.918;2022-07-04T00:54:55;11.32;;;8.68;;
40591;SDS011;26301;42.832;23.918;2022-07-04T00:57:25;10.30;;;9.30;;
40591;SDS011;26301;42.832;23.918;2022-07-04T00:59:51;12.50;;;9.55;;
40591;SDS011;26301;42.832;23.918;2022-07-04T01:02:17;10.93;;;9.00;;
40591;SDS011;26301;42.832;23.918;2022-07-04T01:04:43;12.05;;;9.65;;
40591;SDS011;26301;42.832;23.918;2022-07-04T01:07:09;11.20;;;9.00;;
40591;SDS011;26301;42.832;23.918;2022-07-04T01:09:37;10.38;;;9.38;;
40591;SDS011;26301;42.832;23.918;2022-07-04T01:12:03;13.02;;;9.15;;
40591;SDS011;26301;42.832;23.918;2022-07-04T01:14:30;13.18;;;10.60;;
40591;SDS011;26301;42.832;23.918;2022-07-04T01:16:56;10.80;;;9.80;;
40591;SDS011;26301;42.832;23.918;2022-07-04T01:19:21;10.68;;;9.68;;
40591;SDS011;26301;42.832;23.918;2022-07-04T01:21:47;10.35;;;9.38;;
40591;SDS011;26301;42.832;23.918;2022-07-04T01:24:13;10.88;;;9.45;;
40591;SDS011;26301;42.832;23.918;2022-07-04T01:26:39;13.57;;;9.32;;
40591;SDS011;26301;42.832;23.918;2022-07-04T01:29:05;11.73;;;9.70;;
40591;SDS011;26301;42.832;23.918;2022-07-04T01:31:31;10.52;;;9.35;;
40591;SDS011;26301;42.832;23.918;2022-07-04T01:33:57;10.20;;;9.00;;
40591;SDS011;26301;42.832;23.918;2022-07-04T01:36:23;10.68;;;9.63;;
40591;SDS011;26301;42.832;23.918;2022-07-04T01:38:49;10.50;;;9.30;;
40591;SDS011;26301;42.832;23.918;2022-07-04T01:41:16;10.73;;;9.38;;
40591;SDS011;26301;42.832;23.918;2022-07-04T01:43:42;10.60;;;9.23;;
40591;SDS011;26301;42.832;23.918;2022-07-04T01:46:08;12.68;;;8.98;;
40591;SDS011;26301;42.832;23.918;2022-07-04T01:48:34;10.45;;;9.35;;
40591;SDS011;26301;42.832;23.918;2022-07-04T01:51:00;11.95;;;10.07;;
40591;SDS011;26301;42.832;23.918;2022-07-04T01:53:26;11.27;;;10.15;;
40591;SDS011;26301;42.832;23.918;2022-07-04T01:55:52;9.93;;;8.75;;
40591;SDS011;26301;42.832;23.918;2022-07-04T01:58:18;12.18;;;9.43;;
40591;SDS011;26301;42.832;23.918;2022-07-04T02:00:44;10.70;;;9.63;;
40591;SDS011;26301;42.832;23.918;2022-07-04T02:03:28;10.55;;;9.55;;
40591;SDS011;26301;42.832;23.918;2022-07-04T02:05:54;10.63;;;9.52;;
40591;SDS011;26301;42.832;23.918;2022-07-04T02:08:20;10.38;;;9.38;;
40591;SDS011;26301;42.832;23.918;2022-07-04T02:10:46;12.18;;;10.30;;
40591;SDS011;26301;42.832;23.918;2022-07-04T02:13:11;11.52;;;9.38;;
40591;SDS011;26301;42.832;23.918;2022-07-04T02:15:39;12.27;;;10.02;;
40591;SDS011;26301;42.832;23.918;2022-07-04T02:18:07;10.25;;;9.25;;
40591;SDS011;26301;42.832;23.918;2022-07-04T02:20:35;11.57;;;10.02;;
40591;SDS011;26301;42.832;23.918;2022-07-04T02:23:03;11.57;;;10.23;;
40591;SDS011;26301;42.832;23.918;2022-07-04T02:25:29;11.73;;;10.52;;
40591;SDS011;26301;42.832;23.918;2022-07-04T02:27:55;10.68;;;9.68;;
40591;SDS011;26301;42.832;23.918;2022-07-04T02:30:22;10.27;;;9.20;;
40591;SDS011;26301;42.832;23.918;2022-07-04T02:32:49;9.73;;;8.82;;
40591;SDS011;26301;42.832;23.918;2022-07-04T02:35:16;11.43;;;10.25;;
40591;SDS011;26301;42.832;23.918;2022-07-04T02:37:42;10.57;;;9.45;;
40591;SDS011;26301;42.832;23.918;2022-07-04T02:40:08;11.43;;;10.07;;
40591;SDS011;26301;42.832;23.918;2022-07-04T02:42:35;10.90;;;9.90;;
40591;SDS011;26301;42.832;23.918;2022-07-04T02:45:02;10.93;;;9.82;;
40591;SDS011;26301;42.832;23.918;2022-07-04T02:47:29;10.98;;;9.80;;
40591;SDS011;26301;42.832;23.918;2022-07-04T02:49:55;11.13;;;9.95;;
40591;SDS011;26301;42.832;23.918;2022-07-04T02:52:21;10.35;;;9.35;;
40591;SDS011;26301;42.832;23.918;2022-07-04T02:54:47;10.50;;;9.40;;
40591;SDS011;26301;42.832;23.918;2022-07-04T02:57:13;11.13;;;9.95;;
40591;SDS011;26301;42.832;23.918;2022-07-04T02:59:40;10.35;;;9.25;;
40591;SDS011;26301;42.832;23.918;2022-07-04T03:02:06;10.50;;;9.40;;
40591;SDS011;26301;42.832;23.918;2022-07-04T03:04:32;12.68;;;10.25;;
40591;SDS011;26301;42.832;23.918;2022-07-04T03:06:58;11.15;;;10.05;;
40591;SDS011;26301;42.832;23.918;2022-07-04T03:09:24;13.18;;;9.93;;
40591;SDS011;26301;42.832;23.918;2022-07-04T03:11:54;12.70;;;9.82;;
40591;SDS011;26301;42.832;23.918;2022-07-04T03:14:20;10.60;;;9.52;;
40591;SDS011;26301;42.832;23.918;2022-07-04T03:16:46;10.80;;;9.70;;
40591;SDS011;26301;42.832;23.918;2022-07-04T03:19:13;9.75;;;8.75;;
40591;SDS011;26301;42.832;23.918;2022-07-04T03:21:39;12.32;;;9.57;;
40591;SDS011;26301;42.832;23.918;2022-07-04T03:24:05;10.38;;;9.35;;
40591;SDS011;26301;42.832;23.918;2022-07-04T03:26:33;12.35;;;9.00;;
40591;SDS011;26301;42.832;23.918;2022-07-04T03:29:00;10.85;;;8.73;;
40591;SDS011;26301;42.832;23.918;2022-07-04T03:31:28;12.00;;;8.77;;
40591;SDS011;26301;42.832;23.918;2022-07-04T03:33:55;10.30;;;9.32;;
40591;SDS011;26301;42.832;23.918;2022-07-04T03:36:21;10.57;;;9.45;;
40591;SDS011;26301;42.832;23.918;2022-07-04T03:38:48;9.65;;;8.65;;
40591;SDS011;26301;42.832;23.918;2022-07-04T03:41:15;10.63;;;9.00;;
40591;SDS011;26301;42.832;23.918;2022-07-04T03:43:41;10.02;;;8.45;;
40591;SDS011;26301;42.832;23.918;2022-07-04T03:46:07;10.63;;;8.75;;
40591;SDS011;26301;42.832;23.918;2022-07-04T03:48:33;10.55;;;8.90;;
40591;SDS011;26301;42.832;23.918;2022-07-04T03:50:59;12.18;;;8.90;;
40591;SDS011;26301;42.832;23.918;2022-07-04T03:53:25;9.25;;;8.35;;
40591;SDS011;26301;42.832;23.918;2022-07-04T03:55:50;10.02;;;8.73;;
40591;SDS011;26301;42.832;23.918;2022-07-04T03:58:17;10.75;;;8.98;;
40591;SDS011;26301;42.832;23.918;2022-07-04T04:00:43;10.95;;;8.63;;
40591;SDS011;26301;42.832;23.918;2022-07-04T04:03:09;10.57;;;8.57;;
40591;SDS011;26301;42.832;23.918;2022-07-04T04:05:54;12.90;;;8.55;;
40591;SDS011;26301;42.832;23.918;2022-07-04T04:08:21;11.23;;;8.82;;
40591;SDS011;26301;42.832;23.918;2022-07-04T04:10:47;9.10;;;7.70;;
40591;SDS011;26301;42.832;23.918;2022-07-04T04:13:13;9.32;;;8.27;;
40591;SDS011;26301;42.832;23.918;2022-07-04T04:15:40;10.35;;;7.68;;
40591;SDS011;26301;42.832;23.918;2022-07-04T04:18:06;9.45;;;8.07;;
40591;SDS011;26301;42.832;23.918;2022-07-04T04:20:32;9.27;;;7.57;;
40591;SDS011;26301;42.832;23.918;2022-07-04T04:22:58;14.40;;;7.60;;
40591;SDS011;26301;42.832;23.918;2022-07-04T04:25:24;9.98;;;6.97;;
40591;SDS011;26301;42.832;23.918;2022-07-04T04:27:50;9.07;;;6.93;;
40591;SDS011;26301;42.832;23.918;2022-07-04T04:30:16;7.90;;;7.15;;
40591;SDS011;26301;42.832;23.918;2022-07-04T04:32:42;8.68;;;7.10;;
40591;SDS011;26301;42.832;23.918;2022-07-04T04:35:08;10.02;;;7.32;;
40591;SDS011;26301;42.832;23.918;2022-07-04T04:37:34;8.02;;;7.00;;
40591;SDS011;26301;42.832;23.918;2022-07-04T04:40:01;7.63;;;6.93;;
40591;SDS011;26301;42.832;23.918;2022-07-04T04:42:26;7.47;;;6.68;;
40591;SDS011;26301;42.832;23.918;2022-07-04T04:44:53;8.30;;;6.90;;
40591;SDS011;26301;42.832;23.918;2022-07-04T04:47:20;7.95;;;6.07;;
40591;SDS011;26301;42.832;23.918;2022-07-04T04:49:46;6.35;;;5.60;;
40591;SDS011;26301;42.832;23.918;2022-07-04T04:52:13;7.30;;;5.75;;
40591;SDS011;26301;42.832;23.918;2022-07-04T04:54:39;10.02;;;6.47;;
40591;SDS011;26301;42.832;23.918;2022-07-04T04:57:05;10.77;;;6.45;;
40591;SDS011;26301;42.832;23.918;2022-07-04T04:59:32;7.47;;;6.30;;
40591;SDS011;26301;42.832;23.918;2022-07-04T05:01:59;7.53;;;6.13;;
40591;SDS011;26301;42.832;23.918;2022-07-04T05:04:25;8.63;;;5.97;;
40591;SDS011;26301;42.832;23.918;2022-07-04T05:06:51;7.90;;;6.18;;
40591;SDS011;26301;42.832;23.918;2022-07-04T05:09:17;8.50;;;6.57;;
40591;SDS011;26301;42.832;23.918;2022-07-04T05:11:45;11.57;;;6.60;;
40591;SDS011;26301;42.832;23.918;2022-07-04T05:14:12;9.80;;;5.90;;
40591;SDS011;26301;42.832;23.918;2022-07-04T05:16:38;9.82;;;6.20;;
40591;SDS011;26301;42.832;23.918;2022-07-04T05:19:04;7.88;;;5.78;;
40591;SDS011;26301;42.832;23.918;2022-07-04T05:21:31;7.38;;;6.22;;
40591;SDS011;26301;42.832;23.918;2022-07-04T05:23:58;7.40;;;5.82;;
40591;SDS011;26301;42.832;23.918;2022-07-04T05:26:23;7.15;;;6.45;;
40591;SDS011;26301;42.832;23.918;2022-07-04T05:28:49;7.70;;;6.32;;
40591;SDS011;26301;42.832;23.918;2022-07-04T05:31:15;6.65;;;6.05;;
40591;SDS011;26301;42.832;23.918;2022-07-04T05:33:41;7.60;;;6.32;;
40591;SDS011;26301;42.832;23.918;2022-07-04T05:36:07;9.93;;;5.70;;
40591;SDS011;26301;42.832;23.918;2022-07-04T05:38:34;9.13;;;6.03;;
40591;SDS011;26301;42.832;23.918;2022-07-04T05:41:00;8.07;;;5.88;;
40591;SDS011;26301;42.832;23.918;2022-07-04T05:43:27;7.20;;;6.45;;
40591;SDS011;26301;42.832;23.918;2022-07-04T05:45:55;6.05;;;5.43;;
40591;SDS011;26301;42.832;23.918;2022-07-04T05:48:21;9.48;;;6.28;;
40591;SDS011;26301;42.832;23.918;2022-07-04T05:50:47;13.20;;;6.32;;
40591;SDS011;26301;42.832;23.918;2022-07-04T05:53:14;7.32;;;5.88;;
40591;SDS011;26301;42.832;23.918;2022-07-04T05:55:40;6.13;;;5.53;;
40591;SDS011;26301;42.832;23.918;2022-07-04T05:58:07;10.57;;;6.25;;
40591;SDS011;26301;42.832;23.918;2022-07-04T06:00:34;6.63;;;5.47;;
40591;SDS011;26301;42.832;23.918;2022-07-04T06:03:00;7.28;;;6.05;;
40591;SDS011;26301;42.832;23.918;2022-07-04T06:05:27;15.48;;;6.80;;
40591;SDS011;26301;42.832;23.918;2022-07-04T06:07:53;10.25;;;6.68;;
40591;SDS011;26301;42.832;23.918;2022-07-04T06:10:20;8.88;;;6.22;;
40591;SDS011;26301;42.832;23.918;2022-07-04T06:12:46;7.97;;;5.40;;
40591;SDS011;26301;42.832;23.918;2022-07-04T06:15:13;6.55;;;5.70;;
40591;SDS011;26301;42.832;23.918;2022-07-04T06:17:40;6.80;;;6.10;;
40591;SDS011;26301;42.832;23.918;2022-07-04T06:20:07;7.00;;;6.03;;
40591;SDS011;26301;42.832;23.918;2022-07-04T06:22:44;9.75;;;5.63;;
40591;SDS011;26301;42.832;23.918;2022-07-04T06:25:13;7.90;;;5.55;;
40591;SDS011;26301;42.832;23.918;2022-07-04T06:27:41;8.80;;;5.50;;
40591;SDS011;26301;42.832;23.918;2022-07-04T06:30:08;7.45;;;6.07;;
40591;SDS011;26301;42.832;23.918;2022-07-04T06:35:08;9.65;;;5.97;;
40591;SDS011;26301;42.832;23.918;2022-07-04T06:41:04;9.73;;;5.13;;
40591;SDS011;26301;42.832;23.918;2022-07-04T06:43:31;9.88;;;5.10;;
40591;SDS011;26301;42.832;23.918;2022-07-04T06:45:57;6.85;;;5.00;;
40591;SDS011;26301;42.832;23.918;2022-07-04T06:48:23;9.30;;;5.88;;
40591;SDS011;26301;42.832;23.918;2022-07-04T06:50:49;7.78;;;5.10;;
40591;SDS011;26301;42.832;23.918;2022-07-04T06:53:15;6.82;;;5.20;;
40591;SDS011;26301;42.832;23.918;2022-07-04T06:55:41;6.88;;;5.30;;
40591;SDS011;26301;42.832;23.918;2022-07-04T06:58:08;7.85;;;5.28;;
40591;SDS011;26301;42.832;23.918;2022-07-04T07:00:34;6.47;;;5.20;;
40591;SDS011;26301;42.832;23.918;2022-07-04T07:03:01;7.53;;;5.13;;
40591;SDS011;26301;42.832;23.918;2022-07-04T07:08:41;8.00;;;5.30;;
40591;SDS011;26301;42.832;23.918;2022-07-04T07:11:10;8.50;;;5.22;;
40591;SDS011;26301;42.832;23.918;2022-07-04T07:13:40;9.13;;;5.20;;
40591;SDS011;26301;42.832;23.918;2022-07-04T07:16:07;5.90;;;5.25;;
40591;SDS011;26301;42.832;23.918;2022-07-04T07:18:32;6.35;;;5.00;;
40591;SDS011;26301;42.832;23.918;2022-07-04T07:20:59;6.55;;;5.05;;
40591;SDS011;26301;42.832;23.918;2022-07-04T07:23:28;6.97;;;4.82;;
40591;SDS011;26301;42.832;23.918;2022-07-04T07:25:54;8.18;;;5.25;;
40591;SDS011;26301;42.832;23.918;2022-07-04T07:28:20;5.57;;;4.88;;
40591;SDS011;26301;42.832;23.918;2022-07-04T07:30:46;7.30;;;4.60;;
40591;SDS011;26301;42.832;23.918;2022-07-04T07:33:12;6.35;;;4.80;;
40591;SDS011;26301;42.832;23.918;2022-07-04T07:35:38;7.47;;;4.95;;
40591;SDS011;26301;42.832;23.918;2022-07-04T07:38:05;5.85;;;4.78;;
40591;SDS011;26301;42.832;23.918;2022-07-04T07:40:32;5.53;;;4.85;;
40591;SDS011;26301;42.832;23.918;2022-07-04T07:42:58;5.82;;;5.07;;
40591;SDS011;26301;42.832;23.918;2022-07-04T07:48:11;7.53;;;4.80;;
40591;SDS011;26301;42.832;23.918;2022-07-04T07:50:38;8.25;;;4.90;;
40591;SDS011;26301;42.832;23.918;2022-07-04T07:53:07;6.05;;;4.60;;
40591;SDS011;26301;42.832;23.918;2022-07-04T07:55:33;9.90;;;5.25;;
40591;SDS011;26301;42.832;23.918;2022-07-04T07:57:59;6.75;;;4.53;;
40591;SDS011;26301;42.832;23.918;2022-07-04T08:00:26;7.45;;;4.38;;
40591;SDS011;26301;42.832;23.918;2022-07-04T08:02:52;7.55;;;4.57;;
40591;SDS011;26301;42.832;23.918;2022-07-04T08:05:40;10.50;;;4.57;;
40591;SDS011;26301;42.832;23.918;2022-07-04T08:08:06;6.45;;;4.60;;
40591;SDS011;26301;42.832;23.918;2022-07-04T08:10:35;6.05;;;4.60;;
40591;SDS011;26301;42.832;23.918;2022-07-04T08:13:03;5.72;;;4.40;;
40591;SDS011;26301;42.832;23.918;2022-07-04T08:15:29;6.28;;;4.45;;
40591;SDS011;26301;42.832;23.918;2022-07-04T08:17:55;7.25;;;5.13;;
40591;SDS011;26301;42.832;23.918;2022-07-04T08:20:21;6.65;;;5.00;;
40591;SDS011;26301;42.832;23.918;2022-07-04T08:22:48;5.53;;;4.15;;
40591;SDS011;26301;42.832;23.918;2022-07-04T08:25:14;5.97;;;4.10;;
40591;SDS011;26301;42.832;23.918;2022-07-04T08:27:42;6.03;;;4.15;;
40591;SDS011;26301;42.832;23.918;2022-07-04T08:30:08;4.43;;;4.03;;
40591;SDS011;26301;42.832;23.918;2022-07-04T08:32:34;5.22;;;4.38;;
40591;SDS011;26301;42.832;23.918;2022-07-04T08:35:02;4.93;;;4.32;;
40591;SDS011;26301;42.832;23.918;2022-07-04T08:37:29;7.68;;;4.32;;
40591;SDS011;26301;42.832;23.918;2022-07-04T08:39:55;4.82;;;4.13;;
40591;SDS011;26301;42.832;23.918;2022-07-04T08:42:21;6.47;;;3.75;;
40591;SDS011;26301;42.832;23.918;2022-07-04T08:44:49;7.75;;;4.30;;
40591;SDS011;26301;42.832;23.918;2022-07-04T08:50:04;7.50;;;4.10;;
40591;SDS011;26301;42.832;23.918;2022-07-04T08:52:38;7.10;;;3.85;;
40591;SDS011;26301;42.832;23.918;2022-07-04T08:55:12;12.05;;;5.93;;
40591;SDS011;26301;42.832;23.918;2022-07-04T08:57:57;8.05;;;3.40;;
40591;SDS011;26301;42.832;23.918;2022-07-04T09:03:41;4.40;;;3.50;;
40591;SDS011;26301;42.832;23.918;2022-07-04T09:06:09;13.75;;;6.75;;
40591;SDS011;26301;42.832;23.918;2022-07-04T09:08:39;5.97;;;4.60;;
40591;SDS011;26301;42.832;23.918;2022-07-04T09:11:05;6.15;;;3.83;;
40591;SDS011;26301;42.832;23.918;2022-07-04T09:13:32;4.68;;;3.90;;
40591;SDS011;26301;42.832;23.918;2022-07-04T09:15:59;4.88;;;3.80;;
40591;SDS011;26301;42.832;23.918;2022-07-04T09:18:30;5.20;;;4.30;;
40591;SDS011;26301;42.832;23.918;2022-07-04T09:21:09;8.43;;;4.45;;
40591;SDS011;26301;42.832;23.918;2022-07-04T09:23:39;7.10;;;4.50;;
40591;SDS011;26301;42.832;23.918;2022-07-04T09:26:09;5.63;;;4.20;;
40591;SDS011;26301;42.832;23.918;2022-07-04T09:33:49;5.78;;;4.25;;
40591;SDS011;26301;42.832;23.918;2022-07-04T09:36:18;6.03;;;4.53;;
40591;SDS011;26301;42.832;23.918;2022-07-04T09:41:49;6.82;;;4.30;;
40591;SDS011;26301;42.832;23.918;2022-07-04T09:44:19;7.70;;;4.38;;
40591;SDS011;26301;42.832;23.918;2022-07-04T09:46:46;7.57;;;4.50;;
40591;SDS011;26301;42.832;23.918;2022-07-04T09:49:13;7.18;;;4.70;;
40591;SDS011;26301;42.832;23.918;2022-07-04T09:54:14;6.13;;;4.07;;
40591;SDS011;26301;42.832;23.918;2022-07-04T09:56:48;8.60;;;4.45;;
40591;SDS011;26301;42.832;23.918;2022-07-04T09:59:19;5.05;;;4.55;;
40591;SDS011;26301;42.832;23.918;2022-07-04T10:04:49;7.47;;;4.65;;
40591;SDS011;26301;42.832;23.918;2022-07-04T10:07:34;6.20;;;4.65;;
40591;SDS011;26301;42.832;23.918;2022-07-04T10:10:36;17.42;;;5.50;;
40591;SDS011;26301;42.832;23.918;2022-07-04T10:13:11;7.80;;;5.20;;
40591;SDS011;26301;42.832;23.918;2022-07-04T10:15:39;9.25;;;4.68;;
40591;SDS011;26301;42.832;23.918;2022-07-04T10:18:07;5.78;;;4.88;;
40591;SDS011;26301;42.832;23.918;2022-07-04T10:20:35;6.78;;;4.45;;
40591;SDS011;26301;42.832;23.918;2022-07-04T10:23:02;5.35;;;4.85;;
40591;SDS011;26301;42.832;23.918;2022-07-04T10:25:29;5.30;;;4.80;;
40591;SDS011;26301;42.832;23.918;2022-07-04T10:27:55;9.05;;;4.75;;
40591;SDS011;26301;42.832;23.918;2022-07-04T10:30:26;8.23;;;5.40;;
40591;SDS011;26301;42.832;23.918;2022-07-04T10:32:57;6.00;;;5.05;;
40591;SDS011;26301;42.832;23.918;2022-07-04T10:38:32;11.88;;;4.80;;
40591;SDS011;26301;42.832;23.918;2022-07-04T10:41:02;6.05;;;4.68;;
40591;SDS011;26301;42.832;23.918;2022-07-04T10:48:30;6.40;;;5.07;;
40591;SDS011;26301;42.832;23.918;2022-07-04T10:51:04;16.67;;;4.80;;
40591;SDS011;26301;42.832;23.918;2022-07-04T10:53:32;8.57;;;4.85;;
40591;SDS011;26301;42.832;23.918;2022-07-04T10:58:52;9.40;;;5.10;;
40591;SDS011;26301;42.832;23.918;2022-07-04T11:01:18;5.32;;;4.80;;
40591;SDS011;26301;42.832;23.918;2022-07-04T11:03:48;9.05;;;4.35;;
40591;SDS011;26301;42.832;23.918;2022-07-04T11:19:39;6.00;;;4.53;;
40591;SDS011;26301;42.832;23.918;2022-07-04T11:22:07;8.88;;;4.75;;
40591;SDS011;26301;42.832;23.918;2022-07-04T11:24:35;5.85;;;4.47;;
40591;SDS011;26301;42.832;23.918;2022-07-04T11:27:03;6.70;;;4.35;;
40591;SDS011;26301;42.832;23.918;2022-07-04T11:29:32;6.07;;;4.20;;
40591;SDS011;26301;42.832;23.918;2022-07-04T11:31:59;5.90;;;4.25;;
40591;SDS011;26301;42.832;23.918;2022-07-04T11:34:32;5.10;;;4.20;;
40591;SDS011;26301;42.832;23.918;2022-07-04T11:39:34;5.93;;;4.22;;
40591;SDS011;26301;42.832;23.918;2022-07-04T11:42:09;6.57;;;3.95;;
40591;SDS011;26301;42.832;23.918;2022-07-04T11:44:53;10.77;;;4.18;;
40591;SDS011;26301;42.832;23.918;2022-07-04T11:50:35;5.85;;;4.10;;
40591;SDS011;26301;42.832;23.918;2022-07-04T11:53:01;14.20;;;4.47;;
40591;SDS011;26301;42.832;23.918;2022-07-04T11:55:30;5.07;;;3.80;;
40591;SDS011;26301;42.832;23.918;2022-07-04T11:57:56;11.55;;;4.40;;
40591;SDS011;26301;42.832;23.918;2022-07-04T12:05:42;6.25;;;3.85;;
40591;SDS011;26301;42.832;23.918;2022-07-04T12:08:08;9.38;;;4.15;;
40591;SDS011;26301;42.832;23.918;2022-07-04T12:10:47;6.57;;;3.60;;
40591;SDS011;26301;42.832;23.918;2022-07-04T12:13:15;7.35;;;3.90;;
40591;SDS011;26301;42.832;23.918;2022-07-04T12:15:43;5.15;;;3.75;;
40591;SDS011;26301;42.832;23.918;2022-07-04T12:26:45;6.25;;;3.65;;
40591;SDS011;26301;42.832;23.918;2022-07-04T12:29:19;5.65;;;3.50;;
40591;SDS011;26301;42.832;23.918;2022-07-04T12:31:51;9.07;;;3.72;;
40591;SDS011;26301;42.832;23.918;2022-07-04T12:34:20;9.88;;;3.92;;
40591;SDS011;26301;42.832;23.918;2022-07-04T12:36:52;6.50;;;3.30;;
40591;SDS011;26301;42.832;23.918;2022-07-04T12:42:13;3.97;;;3.15;;
40591;SDS011;26301;42.832;23.918;2022-07-04T12:44:44;4.95;;;3.42;;
40591;SDS011;26301;42.832;23.918;2022-07-04T12:47:11;9.45;;;3.38;;
40591;SDS011;26301;42.832;23.918;2022-07-04T12:49:41;4.03;;;3.35;;
40591;SDS011;26301;42.832;23.918;2022-07-04T12:55:04;4.28;;;2.85;;
40591;SDS011;26301;42.832;23.918;2022-07-04T12:57:34;7.68;;;3.45;;
40591;SDS011;26301;42.832;23.918;2022-07-04T13:00:00;5.00;;;3.20;;
40591;SDS011;26301;42.832;23.918;2022-07-04T13:02:29;6.03;;;3.40;;
40591;SDS011;26301;42.832;23.918;2022-07-04T13:04:54;4.63;;;3.08;;
40591;SDS011;26301;42.832;23.918;2022-07-04T13:07:21;4.80;;;3.10;;
40591;SDS011;26301;42.832;23.918;2022-07-04T13:09:47;6.85;;;3.22;;
40591;SDS011;26301;42.832;23.918;2022-07-04T13:12:13;4.28;;;2.80;;
40591;SDS011;26301;42.832;23.918;2022-07-04T13:14:57;4.38;;;3.58;;
40591;SDS011;26301;42.832;23.918;2022-07-04T13:17:25;4.72;;;3.28;;
40591;SDS011;26301;42.832;23.918;2022-07-04T13:19:51;6.22;;;3.33;;
40591;SDS011;26301;42.832;23.918;2022-07-04T13:22:24;5.63;;;3.22;;
40591;SDS011;26301;42.832;23.918;2022-07-04T13:24:50;3.72;;;3.30;;
40591;SDS011;26301;42.832;23.918;2022-07-04T13:27:16;5.43;;;3.70;;
40591;SDS011;26301;42.832;23.918;2022-07-04T13:29:43;5.15;;;3.15;;
40591;SDS011;26301;42.832;23.918;2022-07-04T13:32:09;7.57;;;3.40;;
40591;SDS011;26301;42.832;23.918;2022-07-04T13:34:36;5.57;;;2.70;;
40591;SDS011;26301;42.832;23.918;2022-07-04T13:37:02;6.38;;;2.90;;
40591;SDS011;26301;42.832;23.918;2022-07-04T13:39:28;5.40;;;3.00;;
40591;SDS011;26301;42.832;23.918;2022-07-04T13:41:55;5.50;;;2.95;;
40591;SDS011;26301;42.832;23.918;2022-07-04T13:44:21;7.55;;;3.15;;
40591;SDS011;26301;42.832;23.918;2022-07-04T13:46:47;5.30;;;3.13;;
40591;SDS011;26301;42.832;23.918;2022-07-04T13:49:13;4.32;;;3.35;;
40591;SDS011;26301;42.832;23.918;2022-07-04T13:51:39;5.38;;;3.10;;
40591;SDS011;26301;42.832;23.918;2022-07-04T13:54:07;4.68;;;2.92;;
40591;SDS011;26301;42.832;23.918;2022-07-04T13:56:33;5.28;;;2.80;;
40591;SDS011;26301;42.832;23.918;2022-07-04T13:59:00;5.68;;;3.00;;
40591;SDS011;26301;42.832;23.918;2022-07-04T14:01:27;4.53;;;3.00;;
40591;SDS011;26301;42.832;23.918;2022-07-04T14:03:53;6.22;;;2.75;;
40591;SDS011;26301;42.832;23.918;2022-07-04T14:06:19;4.80;;;3.33;;
40591;SDS011;26301;42.832;23.918;2022-07-04T14:08:45;5.75;;;3.10;;
40591;SDS011;26301;42.832;23.918;2022-07-04T14:11:11;3.83;;;2.83;;
40591;SDS011;26301;42.832;23.918;2022-07-04T14:13:37;5.70;;;3.03;;
40591;SDS011;26301;42.832;23.918;2022-07-04T14:16:05;4.60;;;3.20;;
40591;SDS011;26301;42.832;23.918;2022-07-04T14:18:34;5.93;;;3.17;;
40591;SDS011;26301;42.832;23.918;2022-07-04T14:21:00;8.35;;;3.80;;
40591;SDS011;26301;42.832;23.918;2022-07-04T14:23:27;4.97;;;2.92;;
40591;SDS011;26301;42.832;23.918;2022-07-04T14:26:05;9.32;;;3.55;;
40591;SDS011;26301;42.832;23.918;2022-07-04T14:28:32;4.20;;;3.10;;
40591;SDS011;26301;42.832;23.918;2022-07-04T14:36:00;5.63;;;3.33;;
40591;SDS011;26301;42.832;23.918;2022-07-04T14:38:27;4.78;;;3.00;;
40591;SDS011;26301;42.832;23.918;2022-07-04T14:40:53;6.45;;;3.17;;
40591;SDS011;26301;42.832;23.918;2022-07-04T14:43:19;5.60;;;3.20;;
40591;SDS011;26301;42.832;23.918;2022-07-04T14:46:00;4.03;;;3.05;;
40591;SDS011;26301;42.832;23.918;2022-07-04T14:48:26;4.43;;;3.17;;
40591;SDS011;26301;42.832;23.918;2022-07-04T14:50:52;4.70;;;3.33;;
40591;SDS011;26301;42.832;23.918;2022-07-04T14:53:19;7.22;;;3.38;;
40591;SDS011;26301;42.832;23.918;2022-07-04T14:55:49;4.40;;;3.20;;
40591;SDS011;26301;42.832;23.918;2022-07-04T14:58:15;7.25;;;3.88;;
40591;SDS011;26301;42.832;23.918;2022-07-04T15:00:41;6.93;;;3.10;;
40591;SDS011;26301;42.832;23.918;2022-07-04T15:03:10;8.23;;;3.97;;
40591;SDS011;26301;42.832;23.918;2022-07-04T15:05:36;7.22;;;3.60;;
40591;SDS011;26301;42.832;23.918;2022-07-04T15:08:05;3.65;;;3.13;;
40591;SDS011;26301;42.832;23.918;2022-07-04T15:10:32;4.60;;;3.38;;
40591;SDS011;26301;42.832;23.918;2022-07-04T15:12:58;6.55;;;3.78;;
40591;SDS011;26301;42.832;23.918;2022-07-04T15:15:24;4.95;;;4.00;;
40591;SDS011;26301;42.832;23.918;2022-07-04T15:17:51;4.75;;;3.55;;
40591;SDS011;26301;42.832;23.918;2022-07-04T15:20:25;6.05;;;3.60;;
40591;SDS011;26301;42.832;23.918;2022-07-04T15:23:09;4.63;;;3.58;;
40591;SDS011;26301;42.832;23.918;2022-07-04T15:25:54;4.70;;;3.60;;
40591;SDS011;26301;42.832;23.918;2022-07-04T15:28:20;10.88;;;3.80;;
40591;SDS011;26301;42.832;23.918;2022-07-04T15:30:46;6.47;;;3.83;;
40591;SDS011;26301;42.832;23.918;2022-07-04T15:33:15;6.70;;;3.88;;
40591;SDS011;26301;42.832;23.918;2022-07-04T15:35:42;10.27;;;4.03;;
40591;SDS011;26301;42.832;23.918;2022-07-04T15:38:08;4.85;;;3.55;;
40591;SDS011;26301;42.832;23.918;2022-07-04T15:40:35;11.57;;;3.78;;
40591;SDS011;26301;42.832;23.918;2022-07-04T15:43:01;4.60;;;3.53;;
40591;SDS011;26301;42.832;23.918;2022-07-04T15:45:28;6.22;;;3.58;;
40591;SDS011;26301;42.832;23.918;2022-07-04T15:47:54;4.68;;;3.30;;
40591;SDS011;26301;42.832;23.918;2022-07-04T15:50:21;6.57;;;3.40;;
40591;SDS011;26301;42.832;23.918;2022-07-04T15:52:47;6.50;;;3.40;;
40591;SDS011;26301;42.832;23.918;2022-07-04T15:55:13;6.10;;;3.88;;
40591;SDS011;26301;42.832;23.918;2022-07-04T15:57:40;4.93;;;3.60;;
40591;SDS011;26301;42.832;23.918;2022-07-04T16:00:09;6.30;;;3.45;;